Brno, Czech Republic
Current Conditions -  °F | °C
As of 6:00 AM on Friday 31 Oct 2014 (Local Time) from LKTB Reporting Station
Few Clouds Few Clouds  
Wind Chill: 45°   Ceiling: Unl
Heat Index: 45°   Visibility: 6mi
Dew Point: 37°   Wind: 3mph
Humidity: 76%   Direction: 310°NW
Pressure: 30.33"   Gusts: NA
Location:  49.2°N, 16.61°E
Report Text: LKTB 310400Z 31003KT 9999 FEW025 07/03 Q1027 NOSIG
Loading
Personal Weather Stations






























Interactive Weather Map
Tropical Storm Tracking
New forecast layout! Learn more

10-Day Weather Forecast

Advertisements
Track Severe Weather on mobile